Time;durP1;ratioP1;P1;durP2;ratioP2;P2;SDS_P1;SDS_P2;PMS_P1;PMS_P2;Temp;Humidity;BMP_temperature;BMP_pressure;BME280_temperature;BME280_humidity;BME280_pressure;Samples;Min_cycle;Max_cycle;Signal;HPM_P1;HPM_P2
2023/02/16 00:01:47;;;;;;;21.90;16.17;;;7.40;98.90;;;;;;4904336;29;20486;-82
2023/02/16 00:04:30;;;;;;;21.27;17.47;;;7.50;99.20;;;;;;4905056;29;20493;-83
2023/02/16 00:07:11;;;;;;;24.43;16.90;;;7.50;99.10;;;;;;4904526;29;21140;-85
2023/02/16 00:09:57;;;;;;;21.90;15.57;;;7.30;99.00;;;;;;4894739;29;20450;-83
2023/02/16 00:15:29;;;;;;;27.83;16.43;;;7.30;99.40;;;;;;4905783;29;20969;-85
2023/02/16 00:18:06;;;;;;;21.47;14.60;;;7.20;99.60;;;;;;4903705;29;21032;-84
2023/02/16 00:20:40;;;;;;;22.40;16.50;;;7.50;99.80;;;;;;4902186;29;20472;-82
2023/02/16 00:23:23;;;;;;;22.50;16.03;;;7.60;99.10;;;;;;4906656;29;20899;-82
2023/02/16 00:25:53;;;;;;;21.53;15.97;;;7.40;99.00;;;;;;4905027;29;20534;-83
2023/02/16 00:28:34;;;;;;;22.67;15.40;;;7.40;99.10;;;;;;4905089;29;20945;-85
2023/02/16 00:31:20;;;;;;;20.90;15.57;;;7.20;99.30;;;;;;4900038;29;21135;-83
2023/02/16 00:34:04;;;;;;;22.27;16.70;;;7.30;99.60;;;;;;4931083;28;20447;-87
2023/02/16 00:36:43;;;;;;;23.97;16.13;;;7.30;99.30;;;;;;4904572;29;20462;-85
2023/02/16 00:39:23;;;;;;;21.97;14.80;;;7.20;99.40;;;;;;4901802;29;20462;-83
2023/02/16 00:42:04;;;;;;;21.00;14.40;;;7.20;99.30;;;;;;4902676;29;21307;-82
2023/02/16 00:44:43;;;;;;;21.80;15.00;;;6.90;99.40;;;;;;4905714;29;20475;-82
2023/02/16 00:47:30;;;;;;;22.63;14.87;;;7.00;99.70;;;;;;4910355;29;20482;-81
2023/02/16 00:50:25;;;;;;;19.20;15.20;;;6.90;99.60;;;;;;4904157;29;20458;-84
2023/02/16 00:53:04;;;;;;;21.57;15.23;;;6.90;99.80;;;;;;4899149;29;20506;-84
2023/02/16 00:55:42;;;;;;;20.87;15.00;;;6.80;99.90;;;;;;4900379;29;20478;-83
2023/02/16 00:58:29;;;;;;;20.90;15.87;;;6.70;99.90;;;;;;4903853;29;20597;-83
2023/02/16 01:01:14;;;;;;;22.57;15.23;;;6.90;99.90;;;;;;4901292;29;20574;-83
2023/02/16 01:03:56;;;;;;;21.27;15.33;;;6.90;99.90;;;;;;4901452;29;20466;-82
2023/02/16 01:12:22;;;;;;;25.20;16.10;;;6.80;99.50;;;;;;4900170;29;20711;-83
2023/02/16 01:15:05;;;;;;;22.87;16.00;;;6.70;99.80;;;;;;4899648;29;20477;-84
2023/02/16 01:17:35;;;;;;;26.17;16.07;;;6.40;99.90;;;;;;4904118;29;20454;-85
2023/02/16 01:20:26;;;;;;;22.50;14.90;;;6.60;99.90;;;;;;4900811;29;20470;-83
2023/02/16 01:23:04;;;;;;;22.83;15.93;;;6.50;99.90;;;;;;4902890;29;21025;-84
2023/02/16 01:25:49;;;;;;;26.00;16.30;;;6.70;99.90;;;;;;4901919;29;20765;-85
2023/02/16 01:28:22;;;;;;;21.73;15.60;;;6.70;99.90;;;;;;4902459;29;20468;-83
2023/02/16 01:31:05;;;;;;;24.90;16.00;;;6.70;99.90;;;;;;4898919;29;20471;-84
2023/02/16 01:33:47;;;;;;;24.27;16.97;;;6.50;99.90;;;;;;4917224;29;20466;-86
2023/02/16 01:36:34;;;;;;;22.47;15.57;;;6.50;99.90;;;;;;4903612;29;21180;-85
2023/02/16 01:39:15;;;;;;;21.87;14.93;;;6.50;99.90;;;;;;4916277;29;20970;-81
2023/02/16 01:42:14;;;;;;;21.43;15.20;;;6.40;99.90;;;;;;4906242;29;22201;-84
2023/02/16 01:45:15;;;;;;;27.50;16.20;;;6.50;99.90;;;;;;4916244;29;20563;-83
2023/02/16 01:48:05;;;;;;;26.07;17.63;;;6.40;99.90;;;;;;4921982;29;20510;-87
2023/02/16 01:51:08;;;;;;;28.30;17.20;;;6.30;99.90;;;;;;4913837;29;20466;-85
2023/02/16 01:54:16;;;;;;;21.87;14.63;;;6.30;99.90;;;;;;4908964;29;20550;-85
2023/02/16 01:57:27;;;;;;;21.37;15.63;;;6.20;99.90;;;;;;4917995;29;20470;-83
2023/02/16 02:00:11;;;;;;;26.97;15.90;;;6.20;99.90;;;;;;4902705;29;20469;-86
2023/02/16 02:05:33;;;;;;;25.07;16.37;;;6.20;99.90;;;;;;4921344;29;21049;-84
2023/02/16 02:05:58;;;;;;;23.00;15.87;;;6.40;99.90;;;;;;4904066;29;20469;-85
2023/02/16 02:08:45;;;;;;;26.50;17.33;;;6.40;99.90;;;;;;4904010;29;20522;-83
2023/02/16 02:11:28;;;;;;;24.50;17.10;;;6.50;99.90;;;;;;4905522;29;20473;-87
2023/02/16 02:14:08;;;;;;;22.63;14.00;;;6.40;99.90;;;;;;4901674;29;20502;-84
2023/02/16 02:17:02;;;;;;;22.70;15.67;;;6.40;99.90;;;;;;4902471;29;20494;-85
2023/02/16 02:19:37;;;;;;;22.80;15.13;;;6.30;99.90;;;;;;4903573;29;20477;-85
2023/02/16 02:25:30;;;;;;;23.87;17.33;;;6.30;99.90;;;;;;4902118;29;20473;-85
2023/02/16 02:28:22;;;;;;;26.07;18.53;;;6.20;99.90;;;;;;4918396;29;21046;-82
2023/02/16 02:31:04;;;;;;;22.90;15.47;;;6.30;99.90;;;;;;4902448;29;20487;-84
2023/02/16 02:34:02;;;;;;;28.73;17.47;;;6.20;99.90;;;;;;4903048;29;20469;-83
2023/02/16 02:37:08;;;;;;;22.17;15.90;;;6.20;99.90;;;;;;4918389;29;20471;-84
2023/02/16 02:40:39;;;;;;;24.77;16.53;;;6.30;99.90;;;;;;4900058;29;20445;-85
2023/02/16 02:43:20;;;;;;;25.10;15.73;;;6.20;99.90;;;;;;4901343;29;20478;-83
2023/02/16 02:46:07;;;;;;;24.00;16.10;;;6.50;99.90;;;;;;4902585;29;20497;-84
2023/02/16 02:49:03;;;;;;;23.30;17.03;;;6.50;99.90;;;;;;4904283;29;20482;-83
2023/02/16 02:51:39;;;;;;;24.00;16.10;;;6.20;99.90;;;;;;4906681;29;20485;-82
2023/02/16 03:00:48;;;;;;;20.60;16.70;;;6.10;99.90;;;;;;4896755;29;21114;-85
2023/02/16 03:03:32;;;;;;;23.17;17.27;;;5.90;99.90;;;;;;4906055;29;20471;-84
2023/02/16 03:06:14;;;;;;;24.20;16.37;;;5.80;99.90;;;;;;4906633;29;20471;-84
2023/02/16 03:09:25;;;;;;;24.77;16.43;;;6.00;99.90;;;;;;4895206;29;20793;-86
2023/02/16 03:14:56;;;;;;;23.70;15.43;;;6.20;99.90;;;;;;4907748;29;20486;-86
2023/02/16 03:29:40;;;;;;;23.70;17.03;;;6.10;99.90;;;;;;4907374;29;20477;-84
2023/02/16 03:32:12;;;;;;;26.67;17.07;;;6.10;99.90;;;;;;4904387;29;20476;-85
2023/02/16 03:34:47;;;;;;;27.70;16.80;;;6.10;99.90;;;;;;4909150;29;20478;-82
2023/02/16 03:37:28;;;;;;;26.20;17.07;;;6.10;99.90;;;;;;4911093;29;20482;-83
2023/02/16 03:40:28;;;;;;;22.57;15.80;;;6.10;99.90;;;;;;4909391;29;20826;-83
2023/02/16 03:43:11;;;;;;;25.80;16.30;;;5.90;99.90;;;;;;4911524;29;20498;-84
2023/02/16 03:46:01;;;;;;;26.03;17.40;;;5.80;99.90;;;;;;4924641;29;20478;-84
2023/02/16 03:48:38;;;;;;;29.37;16.87;;;5.80;99.90;;;;;;4919441;29;20453;-84
2023/02/16 03:51:18;;;;;;;23.03;16.93;;;5.80;99.90;;;;;;4927789;29;20782;-83
2023/02/16 03:54:03;;;;;;;28.03;18.57;;;5.70;99.90;;;;;;4927963;29;20446;-83
2023/02/16 03:56:44;;;;;;;25.57;17.20;;;5.70;99.90;;;;;;4928703;29;20454;-85
2023/02/16 03:59:26;;;;;;;28.87;16.90;;;5.70;99.90;;;;;;4934287;29;20470;-84
2023/02/16 04:02:19;;;;;;;24.87;16.67;;;5.60;99.90;;;;;;4915841;29;20506;-83
2023/02/16 04:04:54;;;;;;;28.90;18.40;;;5.50;99.90;;;;;;4939207;29;20486;-82
2023/02/16 04:07:41;;;;;;;25.80;17.37;;;5.60;99.90;;;;;;4948938;28;20470;-84
2023/02/16 04:10:20;;;;;;;25.03;15.33;;;5.70;99.90;;;;;;4934497;28;20463;-85
2023/02/16 04:13:00;;;;;;;24.23;15.60;;;5.70;99.90;;;;;;4933751;28;20588;-86
2023/02/16 04:15:40;;;;;;;24.37;15.00;;;5.60;99.90;;;;;;4936334;28;20459;-85
2023/02/16 04:18:29;;;;;;;24.00;16.70;;;5.70;99.90;;;;;;4923765;28;20453;-85
2023/02/16 04:21:00;;;;;;;26.53;16.40;;;5.70;99.90;;;;;;4934576;28;20470;-87
2023/02/16 04:23:36;;;;;;;23.50;16.70;;;5.70;99.90;;;;;;4934510;28;20473;-84
2023/02/16 04:26:17;;;;;;;23.60;16.20;;;5.60;99.90;;;;;;4934154;28;20474;-85
2023/02/16 04:28:47;;;;;;;24.80;16.17;;;5.70;99.90;;;;;;4934616;28;20454;-85
2023/02/16 04:31:22;;;;;;;25.40;15.80;;;5.50;99.90;;;;;;4926278;29;20497;-85
2023/02/16 04:33:58;;;;;;;21.10;16.30;;;5.60;99.90;;;;;;4923728;29;20465;-84
2023/02/16 04:36:33;;;;;;;26.40;17.00;;;5.60;99.90;;;;;;4912275;29;20443;-84
2023/02/16 04:39:04;;;;;;;24.83;16.80;;;5.40;99.90;;;;;;4904834;29;20455;-83
2023/02/16 04:41:45;;;;;;;23.33;15.90;;;5.30;99.90;;;;;;4907394;29;20510;-84
2023/02/16 04:44:19;;;;;;;20.97;15.30;;;5.20;99.90;;;;;;4905402;29;20454;-83
2023/02/16 04:47:02;;;;;;;20.70;14.67;;;5.50;99.90;;;;;;4904226;29;20568;-83
2023/02/16 04:49:37;;;;;;;25.23;15.80;;;5.60;99.90;;;;;;4904797;29;20529;-83
2023/02/16 04:52:16;;;;;;;23.60;17.03;;;5.50;99.90;;;;;;4903283;29;21016;-84
2023/02/16 04:54:52;;;;;;;26.13;17.27;;;5.60;99.90;;;;;;4902061;29;20485;-82
2023/02/16 04:57:31;;;;;;;21.53;17.40;;;5.50;99.90;;;;;;4903143;29;21043;-84
2023/02/16 05:00:13;;;;;;;26.20;16.20;;;5.30;99.90;;;;;;4918749;29;20493;-82
2023/02/16 05:02:51;;;;;;;24.47;16.93;;;5.30;99.90;;;;;;4902206;29;20586;-81
2023/02/16 05:05:21;;;;;;;22.07;15.63;;;5.40;99.90;;;;;;4902701;29;21765;-84
2023/02/16 05:08:21;;;;;;;23.67;16.57;;;5.40;99.90;;;;;;4902303;29;20566;-83
2023/02/16 05:16:52;;;;;;;29.17;15.73;;;5.20;99.90;;;;;;4905380;29;20478;-83
2023/02/16 05:19:29;;;;;;;23.30;16.07;;;5.40;99.90;;;;;;4901851;29;20549;-82
2023/02/16 05:22:21;;;;;;;20.80;15.77;;;5.30;99.90;;;;;;4917032;29;20497;-82
2023/02/16 05:24:56;;;;;;;26.03;16.07;;;5.40;99.90;;;;;;4905192;29;20471;-84
2023/02/16 05:33:22;;;;;;;22.10;13.83;;;5.00;99.90;;;;;;5063120;23;20503;-82
2023/02/16 05:36:00;;;;;;;22.90;14.60;;;5.20;99.90;;;;;;4884676;29;20463;-83
2023/02/16 05:38:41;;;;;;;21.43;15.83;;;5.10;99.90;;;;;;4890266;29;20482;-83
2023/02/16 05:41:30;;;;;;;24.80;15.80;;;5.30;99.90;;;;;;4897572;29;20450;-83
2023/02/16 05:44:11;;;;;;;21.33;16.00;;;5.10;99.90;;;;;;4874029;29;20532;-84
2023/02/16 05:46:45;;;;;;;24.17;16.30;;;5.00;99.90;;;;;;4885823;29;20470;-81
2023/02/16 05:49:26;;;;;;;26.03;17.37;;;5.20;99.90;;;;;;4886790;29;20472;-81
2023/02/16 05:51:57;;;;;;;24.83;16.13;;;5.20;99.90;;;;;;4887095;29;20546;-83
2023/02/16 05:54:37;;;;;;;28.27;17.60;;;5.20;99.90;;;;;;4886400;29;20470;-82
2023/02/16 05:57:18;;;;;;;26.37;16.63;;;5.10;99.90;;;;;;4884456;29;21003;-84
2023/02/16 06:00:15;;;;;;;25.43;16.47;;;5.00;99.90;;;;;;4885854;29;20476;-84
2023/02/16 06:02:49;;;;;;;22.27;12.67;;;5.00;99.90;;;;;;4885057;29;20559;-82
2023/02/16 06:05:27;;;;;;;21.37;14.87;;;5.00;99.90;;;;;;4885676;29;20467;-83
2023/02/16 06:08:15;;;;;;;22.63;16.83;;;5.10;99.90;;;;;;4888978;29;20530;-82
2023/02/16 06:11:02;;;;;;;21.77;14.03;;;5.00;99.90;;;;;;4903041;29;20471;-82
2023/02/16 06:13:37;;;;;;;23.20;14.97;;;4.90;99.90;;;;;;4891972;29;20467;-82
2023/02/16 06:16:10;;;;;;;23.03;14.27;;;4.80;99.90;;;;;;4891482;29;20520;-82
2023/02/16 06:18:43;;;;;;;25.27;15.47;;;4.80;99.90;;;;;;4879460;29;20478;-82
2023/02/16 06:21:18;;;;;;;28.90;17.37;;;4.70;99.90;;;;;;4904623;29;20483;-83
2023/02/16 06:23:52;;;;;;;26.30;17.50;;;4.70;99.90;;;;;;4911037;29;20470;-83
2023/02/16 06:29:07;;;;;;;28.30;16.73;;;4.80;99.90;;;;;;4933113;23;20515;-86
2023/02/16 06:31:39;;;;;;;26.10;16.73;;;4.70;99.90;;;;;;4910511;29;20474;-83
2023/02/16 06:34:14;;;;;;;31.20;17.23;;;4.70;99.90;;;;;;4905767;29;20463;-84
2023/02/16 06:36:41;;;;;;;24.80;15.30;;;4.80;99.90;;;;;;4901877;29;20470;-82
2023/02/16 06:39:15;;;;;;;28.90;16.17;;;4.70;99.90;;;;;;4897280;29;20490;-84
2023/02/16 06:41:54;;;;;;;25.13;16.77;;;4.70;99.90;;;;;;4905025;29;20483;-82
2023/02/16 06:44:36;;;;;;;26.47;17.47;;;4.80;99.90;;;;;;4893242;29;20562;-82
2023/02/16 06:47:08;;;;;;;26.10;17.80;;;4.90;99.90;;;;;;4884770;29;20491;-83
2023/02/16 06:50:16;;;;;;;27.43;18.50;;;5.00;99.90;;;;;;4882401;29;20466;-84
2023/02/16 06:52:49;;;;;;;26.13;16.30;;;4.90;99.90;;;;;;4881937;29;20486;-84
2023/02/16 06:55:21;;;;;;;23.57;16.00;;;5.10;99.90;;;;;;4878472;29;21069;-84
2023/02/16 06:58:02;;;;;;;28.13;17.50;;;5.00;99.90;;;;;;4884137;29;20468;-83
2023/02/16 07:00:49;;;;;;;24.10;16.60;;;5.00;99.90;;;;;;4879212;29;22418;-84
2023/02/16 07:03:48;;;;;;;21.63;14.63;;;5.20;99.90;;;;;;4881545;29;20555;-84
2023/02/16 07:06:41;;;;;;;24.60;15.37;;;5.10;99.90;;;;;;4889428;29;20468;-84
2023/02/16 07:09:24;;;;;;;25.43;18.10;;;5.10;99.90;;;;;;4886956;29;20460;-81
2023/02/16 07:12:08;;;;;;;25.77;15.97;;;5.20;99.90;;;;;;4908062;29;20506;-86
2023/02/16 07:14:39;;;;;;;28.43;16.93;;;5.20;99.90;;;;;;4907293;29;20487;-84
2023/02/16 07:17:13;;;;;;;23.23;15.77;;;5.20;99.90;;;;;;4910859;29;20456;-85
2023/02/16 07:20:04;;;;;;;23.20;16.53;;;5.30;99.90;;;;;;4907995;29;20451;-83
2023/02/16 07:22:41;;;;;;;26.20;16.97;;;5.30;99.90;;;;;;4902238;29;20491;-83
2023/02/16 07:25:32;;;;;;;26.73;15.57;;;5.40;99.90;;;;;;4888096;29;20470;-84
2023/02/16 07:28:39;;;;;;;26.93;16.50;;;6.20;99.90;;;;;;4887555;29;20663;-83
2023/02/16 07:31:14;;;;;;;20.83;12.40;;;6.90;99.50;;;;;;4880552;29;20464;-84
2023/02/16 07:33:52;;;;;;;25.77;16.73;;;7.00;96.70;;;;;;4884338;29;20471;-83
2023/02/16 07:37:13;;;;;;;22.20;16.20;;;6.40;96.90;;;;;;4890177;29;20461;-82
2023/02/16 07:39:43;;;;;;;27.93;16.67;;;6.10;98.30;;;;;;4885001;29;20478;-84
2023/02/16 07:42:28;;;;;;;33.13;16.57;;;5.90;99.10;;;;;;4883114;29;20467;-83
2023/02/16 07:45:02;;;;;;;28.13;17.00;;;5.80;99.70;;;;;;4887576;29;20464;-85
2023/02/16 07:47:40;;;;;;;26.37;16.70;;;5.60;99.90;;;;;;4883647;29;20866;-84
2023/02/16 07:50:21;;;;;;;22.67;16.30;;;5.60;99.90;;;;;;4887310;29;20503;-85
2023/02/16 07:53:00;;;;;;;27.63;17.30;;;5.50;99.90;;;;;;4882147;29;20515;-84
2023/02/16 07:55:37;;;;;;;25.17;17.50;;;5.50;99.90;;;;;;4885433;29;20463;-85
2023/02/16 07:58:26;;;;;;;29.57;17.70;;;5.50;99.90;;;;;;4891146;29;20471;-84
2023/02/16 08:01:28;;;;;;;19.60;13.77;;;5.50;99.90;;;;;;4891097;29;20615;-83
2023/02/16 08:04:27;;;;;;;24.20;16.47;;;5.50;99.90;;;;;;4882996;29;20784;-85
2023/02/16 08:07:00;;;;;;;19.73;14.30;;;5.50;99.90;;;;;;4884589;29;21006;-84
2023/02/16 08:09:34;;;;;;;27.50;14.67;;;5.50;99.90;;;;;;4884900;29;20500;-83
2023/02/16 08:12:10;;;;;;;26.60;16.63;;;5.50;99.90;;;;;;4884911;29;20491;-85
2023/02/16 08:14:46;;;;;;;30.63;19.50;;;5.60;99.90;;;;;;4880050;29;20463;-85
2023/02/16 08:17:32;;;;;;;26.30;17.63;;;5.60;99.90;;;;;;4884204;29;20482;-83
2023/02/16 08:20:00;;;;;;;29.37;17.87;;;5.60;99.90;;;;;;4884461;29;20556;-82
2023/02/16 08:22:34;;;;;;;26.40;17.53;;;5.80;99.90;;;;;;4885604;29;21224;-83
2023/02/16 08:25:18;;;;;;;30.93;18.20;;;5.80;99.90;;;;;;4880510;29;20471;-85
2023/02/16 08:27:58;;;;;;;34.47;18.80;;;5.80;99.90;;;;;;4884044;29;21317;-82
2023/02/16 08:34:10;;;;;;;;;;;;;;;;;;;;;
2023/02/16 08:37:38;;;;;;;28.13;18.40;;;6.00;99.90;;;;;;4890360;29;20981;-85
2023/02/16 08:40:28;;;;;;;28.23;16.00;;;6.00;99.90;;;;;;4900226;29;21027;-85
2023/02/16 08:46:38;;;;;;;26.53;17.17;;;6.00;99.90;;;;;;4885152;29;20543;-83
2023/02/16 08:49:30;;;;;;;;;;;;;;;;;;;;;
2023/02/16 08:55:31;;;;;;;25.30;17.33;;;6.30;99.90;;;;;;4880073;29;20467;-85
2023/02/16 08:58:14;;;;;;;26.57;16.37;;;6.30;99.90;;;;;;4886244;29;20566;-84
2023/02/16 09:01:22;;;;;;;26.93;17.97;;;6.30;99.90;;;;;;4883517;29;20478;-85
2023/02/16 09:04:44;;;;;;;25.07;17.27;;;6.40;99.90;;;;;;4885260;29;20598;-85
2023/02/16 09:07:36;;;;;;;29.63;18.17;;;6.50;99.90;;;;;;4891136;29;20459;-85
2023/02/16 09:10:52;;;;;;;26.07;18.30;;;6.60;99.90;;;;;;4904620;23;20532;-83
2023/02/16 09:14:13;;;;;;;32.20;19.50;;;6.90;99.90;;;;;;4845949;29;20454;-83
2023/02/16 09:17:24;;;;;;;25.53;17.93;;;7.10;99.70;;;;;;4793479;29;20484;-84
2023/02/16 09:20:08;;;;;;;28.03;18.17;;;7.30;99.30;;;;;;4835470;29;21004;-85
2023/02/16 09:27:01;;;;;;;25.43;16.97;;;7.20;99.40;;;;;;4840953;29;20981;-83
2023/02/16 09:30:15;;;;;;;27.77;18.97;;;7.30;99.80;;;;;;4795262;29;21000;-84
2023/02/16 09:33:30;;;;;;;25.10;18.27;;;7.50;99.40;;;;;;4802705;29;20593;-84
2023/02/16 09:36:21;;;;;;;18.00;12.80;;;7.60;99.10;;;;;;4816310;29;20467;-86
2023/02/16 09:39:25;;;;;;;22.33;16.93;;;7.80;98.90;;;;;;4808633;29;20586;-85
2023/02/16 09:43:03;;;;;;;30.27;18.70;;;7.80;98.90;;;;;;4797042;29;20482;-85
2023/02/16 09:46:31;;;;;;;;;;;;;;;;;;;;;
2023/02/16 09:49:47;;;;;;;27.40;18.50;;;8.30;98.10;;;;;;4807849;29;20515;-84
2023/02/16 09:52:27;;;;;;;29.13;17.10;;;8.40;97.90;;;;;;4795163;29;21054;-83
2023/02/16 09:55:21;;;;;;;27.77;17.33;;;8.60;97.90;;;;;;4811442;29;20455;-84
2023/02/16 09:58:03;;;;;;;23.73;17.37;;;8.70;97.50;;;;;;4813801;29;20463;-84
2023/02/16 10:00:48;;;;;;;25.50;17.53;;;8.90;97.30;;;;;;4840017;29;20619;-85
2023/02/16 10:04:01;;;;;;;29.40;17.17;;;9.00;97.20;;;;;;4847295;29;20489;-84
2023/02/16 10:07:05;;;;;;;24.67;17.53;;;9.20;97.00;;;;;;4847119;29;20461;-85
2023/02/16 10:24:32;;;;;;;27.40;18.80;;;9.20;96.90;;;;;;3126276;27;20493;-84
2023/02/16 10:27:49;;;;;;;24.90;17.83;;;9.20;96.80;;;;;;4840514;29;20508;-82
2023/02/16 10:31:08;;;;;;;27.00;20.10;;;8.90;97.20;;;;;;4850201;29;20472;-83
2023/02/16 10:34:11;;;;;;;25.00;18.60;;;9.10;97.70;;;;;;4824817;29;20470;-83
2023/02/16 10:37:38;;;;;;;26.80;18.17;;;9.40;97.30;;;;;;4827066;29;20990;-85
2023/02/16 10:41:32;;;;;;;23.70;17.47;;;9.50;97.00;;;;;;4839276;29;20461;-83
2023/02/16 10:44:33;;;;;;;25.60;17.90;;;9.60;97.00;;;;;;4756676;29;20465;-83
2023/02/16 10:54:48;;;;;;;28.80;18.73;;;9.60;97.50;;;;;;3147161;27;20496;-85
2023/02/16 10:58:02;;;;;;;;;;;;;;;;;;;;;
2023/02/16 11:01:31;;;;;;;26.03;19.10;;;9.60;97.80;;;;;;4898372;29;20443;-83
2023/02/16 11:04:55;;;;;;;;;;;;;;;;;;;;;
2023/02/16 11:08:02;;;;;;;24.03;17.97;;;9.60;97.70;;;;;;4880984;29;20531;-83
2023/02/16 11:10:51;;;;;;;24.90;20.13;;;9.70;98.00;;;;;;5065210;23;22024;-82
2023/02/16 11:13:38;;;;;;;26.83;18.43;;;9.90;97.80;;;;;;4924167;23;21042;-84
2023/02/16 11:16:19;;;;;;;30.00;19.10;;;10.10;96.80;;;;;;4910070;29;20494;-84
2023/02/16 11:19:02;;;;;;;25.60;18.70;;;9.90;97.30;;;;;;4905278;29;20466;-83
2023/02/16 11:21:54;;;;;;;25.13;19.10;;;10.10;96.80;;;;;;4903274;29;20471;-83
2023/02/16 11:24:39;;;;;;;25.43;17.70;;;10.00;96.80;;;;;;4906959;29;20459;-84
2023/02/16 11:28:34;;;;;;;26.73;18.60;;;10.00;97.20;;;;;;4905819;29;20454;-84
2023/02/16 11:35:34;;;;;;;24.90;17.43;;;10.50;96.40;;;;;;4762526;29;20459;-81
2023/02/16 11:42:58;;;;;;;25.67;17.17;;;10.40;96.30;;;;;;4718131;30;20540;-84
2023/02/16 11:46:05;;;;;;;;;;;;;;;;;;;;;
2023/02/16 11:49:30;;;;;;;27.87;20.00;;;10.40;96.40;;;;;;4751713;29;20785;-84
2023/02/16 11:53:05;;;;;;;;;;;;;;;;;;;;;
2023/02/16 11:59:42;;;;;;;24.47;18.27;;;10.60;97.20;;;;;;4863933;29;20472;-82
2023/02/16 12:06:49;;;;;;;24.90;17.70;;;10.50;96.60;;;;;;4852717;29;20464;-85
2023/02/16 12:10:18;;;;;;;25.53;17.83;;;10.30;97.40;;;;;;4863399;29;21416;-84
2023/02/16 12:18:52;;;;;;;24.83;18.40;;;11.10;97.00;;;;;;4884161;29;22337;-83
2023/02/16 12:25:48;;;;;;;24.77;16.70;;;10.60;96.50;;;;;;4808106;29;20526;-83
2023/02/16 12:32:50;;;;;;;24.90;17.50;;;10.90;97.90;;;;;;4757886;29;20489;-84
2023/02/16 12:35:35;;;;;;;24.93;18.50;;;11.10;97.10;;;;;;4807857;29;20466;-82
2023/02/16 12:38:33;;;;;;;20.83;17.47;;;11.00;96.90;;;;;;4811405;29;20479;-83
2023/02/16 12:45:45;;;;;;;24.60;18.63;;;11.20;96.80;;;;;;4785096;29;20477;-84
2023/02/16 12:48:48;;;;;;;24.00;17.80;;;11.40;97.00;;;;;;4762423;29;20602;-85
2023/02/16 12:55:43;;;;;;;25.10;18.60;;;11.50;96.50;;;;;;4723606;30;20456;-84
2023/02/16 12:58:57;;;;;;;27.60;19.23;;;11.40;96.40;;;;;;4729280;29;20483;-83
2023/02/16 13:05:51;;;;;;;22.60;17.47;;;11.30;97.00;;;;;;4909398;29;20454;-85
2023/02/16 13:09:15;;;;;;;25.50;17.90;;;11.50;96.90;;;;;;4909640;29;20483;-83
2023/02/16 13:12:25;;;;;;;26.23;18.67;;;11.30;97.10;;;;;;4913188;29;20592;-84
2023/02/16 13:15:25;;;;;;;26.67;18.33;;;11.40;97.50;;;;;;4909700;29;20514;-84
2023/02/16 13:18:57;;;;;;;24.80;18.83;;;11.20;97.70;;;;;;4947711;28;20456;-86
2023/02/16 13:22:25;;;;;;;23.67;17.03;;;11.20;98.30;;;;;;4906175;29;20568;-84
2023/02/16 13:25:52;;;;;;;;;;;;;;;;;;;;;
2023/02/16 13:29:10;;;;;;;25.40;18.93;;;11.50;98.40;;;;;;4870325;29;20476;-84
2023/02/16 13:32:27;;;;;;;24.80;19.27;;;11.30;98.50;;;;;;4863202;29;21037;-84
2023/02/16 13:35:46;;;;;;;28.90;19.93;;;11.20;98.90;;;;;;4768979;29;20481;-82
2023/02/16 13:39:20;;;;;;;26.23;20.30;;;11.40;99.40;;;;;;4870332;29;21091;-82
2023/02/16 13:42:51;;;;;;;32.73;19.77;;;11.70;99.10;;;;;;4809306;29;20749;-85
2023/02/16 13:45:54;;;;;;;28.90;18.87;;;11.80;99.40;;;;;;4764919;29;20524;-85
2023/02/16 13:48:55;;;;;;;22.17;18.37;;;11.90;99.70;;;;;;4858985;29;20515;-85
2023/02/16 13:52:05;;;;;;;29.27;19.20;;;12.30;99.00;;;;;;4892676;23;20497;-84
2023/02/16 13:55:09;;;;;;;23.10;16.50;;;12.20;98.70;;;;;;4871536;29;20455;-84
2023/02/16 13:58:11;;;;;;;25.57;18.97;;;12.20;98.70;;;;;;4899481;29;20535;-85
2023/02/16 14:01:19;;;;;;;23.87;19.47;;;12.20;98.90;;;;;;4894844;29;20967;-83
2023/02/16 14:04:28;;;;;;;22.20;17.77;;;12.40;99.40;;;;;;4889936;29;20549;-84
2023/02/16 14:08:07;;;;;;;;;;;;;;;;;;;;;
2023/02/16 14:25:04;;;;;;;22.43;17.40;;;12.70;99.00;;;;;;4843781;29;20460;-85
2023/02/16 14:28:13;;;;;;;20.30;16.90;;;12.80;99.70;;;;;;4804816;29;20628;-84
2023/02/16 14:35:45;;;;;;;20.33;16.70;;;12.60;99.80;;;;;;4708542;30;20456;-84
2023/02/16 16:00:09;;;;;;;23.50;16.40;;;12.20;99.90;;;;;;4953842;23;20526;-84
2023/02/16 16:16:53;;;;;;;19.97;15.90;;;12.10;99.90;;;;;;4804360;29;20483;-86
2023/02/16 16:20:57;;;;;;;21.70;16.90;;;12.30;99.80;;;;;;4813892;29;21384;-85
2023/02/16 16:24:36;;;;;;;;;;;;;;;;;;;;;
2023/02/16 16:28:15;;;;;;;;;;;;;;;;;;;;;
2023/02/16 17:27:23;;;;;;;;;;;;;;;;;;;;;
2023/02/16 17:54:35;;;;;;;10.50;9.03;;;12.40;96.50;;;;;;4823041;29;20475;-83
2023/02/16 18:10:24;;;;;;;9.47;8.30;;;12.30;96.40;;;;;;4727541;30;20490;-87
2023/02/16 18:22:17;;;;;;;;;;;;;;;;;;;;;
2023/02/16 18:52:01;;;;;;;21.90;11.43;;;12.20;97.20;;;;;;4753659;29;21098;-86
2023/02/16 18:55:34;;;;;;;;;;;;;;;;;;;;;
2023/02/16 19:08:10;;;;;;;13.17;10.43;;;12.10;97.70;;;;;;1190602;23;20502;-86
2023/02/16 19:11:06;;;;;;;17.30;11.13;;;12.00;97.70;;;;;;4911533;29;20471;-86
2023/02/16 19:18:05;;;;;;;12.07;9.90;;;12.00;97.80;;;;;;4866071;29;20446;-86
2023/02/16 19:22:03;;;;;;;;;;;;;;;;;;;;;
2023/02/16 19:25:56;;;;;;;;;;;;;;;;;;;;;
2023/02/16 19:29:09;;;;;;;15.10;10.43;;;12.00;98.10;;;;;;4731449;30;20451;-83
2023/02/16 19:32:30;;;;;;;12.60;10.50;;;12.00;98.30;;;;;;4828453;23;22603;-84
2023/02/16 19:36:22;;;;;;;13.20;11.53;;;12.10;98.10;;;;;;4832171;29;20517;-83
2023/02/16 19:39:57;;;;;;;12.00;10.60;;;12.10;97.80;;;;;;4818883;29;20492;-84
2023/02/16 19:43:25;;;;;;;;;;;;;;;;;;;;;
2023/02/16 19:54:28;;;;;;;10.30;9.20;;;12.20;97.80;;;;;;4618662;30;20489;-85
2023/02/16 20:08:39;;;;;;;8.70;5.47;;;11.90;99.40;;;;;;5121028;27;20448;-84
2023/02/16 20:12:31;;;;;;;;;;;;;;;;;;;;;
2023/02/16 20:16:28;;;;;;;8.80;6.80;;;12.20;98.50;;;;;;5031600;28;20596;-85
2023/02/16 20:22:59;;;;;;;8.97;7.70;;;12.00;98.90;;;;;;4937349;28;20495;-84
2023/02/16 20:29:25;;;;;;;8.57;7.67;;;12.10;98.80;;;;;;5113006;28;21793;-84
2023/02/16 20:35:04;;;;;;;10.97;7.50;;;12.00;98.60;;;;;;5112150;22;20536;-85
2023/02/16 20:37:55;;;;;;;9.70;7.07;;;12.10;98.70;;;;;;5045849;28;20489;-85
2023/02/16 20:40:57;;;;;;;12.53;8.37;;;12.10;98.60;;;;;;5063198;28;21087;-87
2023/02/16 20:43:54;;;;;;;8.97;6.50;;;12.00;98.80;;;;;;5077623;28;20486;-83
2023/02/16 20:47:19;;;;;;;;;;;;;;;;;;;;;
2023/02/16 20:50:50;;;;;;;10.23;7.60;;;12.00;99.40;;;;;;5079380;28;20454;-83
2023/02/16 20:54:02;;;;;;;9.23;6.80;;;11.90;99.70;;;;;;5163906;22;20505;-86
2023/02/16 20:57:06;;;;;;;9.23;7.40;;;12.00;99.90;;;;;;5083883;28;20451;-86
2023/02/16 21:12:20;;;;;;;;;;;;;;;;;;;;;
2023/02/16 21:16:23;;;;;;;;;;;;;;;;;;;;;
2023/02/16 21:19:45;;;;;;;13.23;9.50;;;11.60;99.90;;;;;;4772703;30;20449;-85
2023/02/16 21:30:14;;;;;;;10.00;8.70;;;11.80;99.90;;;;;;4953343;28;20524;-85
2023/02/16 21:33:49;;;;;;;;;;;;;;;;;;;;;
2023/02/16 21:37:27;;;;;;;9.50;8.50;;;11.50;99.90;;;;;;4850339;29;20523;-83
2023/02/16 22:01:20;;;;;;;13.00;10.40;;;11.90;99.90;;;;;;4968992;28;20463;-84
2023/02/16 22:08:59;;;;;;;;;;;;;;;;;;;;;
2023/02/16 22:12:56;;;;;;;;;;;;;;;;;;;;;
2023/02/16 22:16:30;;;;;;;11.30;9.27;;;11.90;99.90;;;;;;4970287;28;20467;-83
2023/02/16 22:20:15;;;;;;;;;;;;;;;;;;;;;
2023/02/16 22:32:32;;;;;;;10.80;9.13;;;11.90;99.90;;;;;;5022665;22;21093;-83
2023/02/16 22:55:04;;;;;;;9.27;7.70;;;11.80;99.90;;;;;;5072700;22;20534;-84
2023/02/16 23:10:10;;;;;;;9.80;7.50;;;12.00;99.90;;;;;;5036168;28;20945;-85
2023/02/16 23:21:41;;;;;;;11.57;9.53;;;12.60;99.90;;;;;;5115555;22;20478;-83
2023/02/16 23:36:54;;;;;;;11.50;9.37;;;12.40;99.90;;;;;;4922361;29;20448;-83
2023/02/16 23:47:44;;;;;;;12.10;9.93;;;12.40;99.90;;;;;;4973755;28;20444;-83
